createdAt,value
2022-12-01T00:00:03.938Z,7.40
2022-12-01T00:05:10.633Z,7.40
2022-12-01T00:10:29.897Z,7.40
2022-12-01T00:15:36.222Z,7.40
2022-12-01T00:20:41.987Z,7.40
2022-12-01T00:25:45.913Z,7.40
2022-12-01T00:30:55.443Z,7.40
2022-12-01T00:36:02.343Z,7.40
2022-12-01T00:41:09.846Z,7.40
2022-12-01T00:46:14.502Z,7.30
2022-12-01T00:51:20.189Z,7.30
2022-12-01T00:56:24.253Z,7.30
2022-12-01T01:01:28.596Z,7.30
2022-12-01T01:06:34.295Z,7.30
2022-12-01T01:11:39.136Z,7.30
2022-12-01T01:16:43.512Z,7.30
2022-12-01T01:21:50.850Z,7.30
2022-12-01T01:26:55.451Z,7.30
2022-12-01T01:31:59.628Z,7.30
2022-12-01T01:37:05.158Z,7.30
2022-12-01T01:42:11.795Z,7.30
2022-12-01T01:47:16.402Z,7.30
2022-12-01T01:52:23.877Z,7.40
2022-12-01T01:57:32.193Z,7.40
2022-12-01T02:02:40.940Z,7.40
2022-12-01T02:07:47.740Z,7.40
2022-12-01T02:13:13.191Z,7.40
2022-12-01T02:18:26.104Z,7.40
2022-12-01T02:24:06.849Z,7.40
2022-12-01T02:29:38.783Z,7.40
2022-12-01T02:34:52.131Z,7.40
2022-12-01T02:39:59.933Z,7.40
2022-12-01T02:45:08.965Z,7.40
2022-12-01T02:50:17.921Z,7.40
2022-12-01T02:55:22.224Z,7.40
2022-12-01T03:00:32.601Z,7.40
2022-12-01T03:05:49.401Z,7.40
2022-12-01T03:10:56.319Z,7.40
2022-12-01T03:16:04.346Z,7.40
2022-12-01T03:21:12.740Z,7.40
2022-12-01T03:26:25.623Z,7.40
2022-12-01T03:31:34.431Z,7.40
2022-12-01T03:36:43.689Z,7.40
2022-12-01T03:41:53.172Z,7.30
2022-12-01T03:47:00.935Z,7.40
2022-12-01T03:52:17.712Z,7.30
2022-12-01T03:57:30.884Z,7.30
2022-12-01T04:02:34.811Z,7.30
2022-12-01T04:07:41.713Z,7.30
2022-12-01T04:12:46.413Z,7.30
2022-12-01T04:17:51.248Z,7.30
2022-12-01T04:22:59.808Z,7.30
2022-12-01T04:28:03.833Z,7.30
2022-12-01T04:33:07.986Z,7.30
2022-12-01T04:38:13.321Z,7.30
2022-12-01T04:43:19.530Z,7.30
2022-12-01T04:48:23.469Z,7.30
2022-12-01T04:53:32.947Z,7.20
2022-12-01T04:58:40.070Z,7.20
2022-12-01T05:03:44.667Z,7.20
2022-12-01T05:08:50.534Z,7.20
2022-12-01T05:13:54.419Z,7.20
2022-12-01T05:19:14.010Z,7.20
2022-12-01T05:24:20.771Z,7.30
2022-12-01T05:29:25.490Z,7.30
2022-12-01T05:34:31.675Z,7.30
2022-12-01T05:39:36.888Z,7.30
2022-12-01T05:44:41.055Z,7.30
2022-12-01T05:49:45.052Z,7.30
2022-12-01T05:54:50.867Z,7.30
2022-12-01T05:59:54.964Z,7.30
2022-12-01T06:04:59.518Z,7.30
2022-12-01T06:10:07.148Z,7.30
2022-12-01T06:15:17.504Z,7.30
2022-12-01T06:20:21.713Z,7.30
2022-12-01T06:25:26.994Z,7.30
2022-12-01T06:30:34.104Z,7.30
2022-12-01T06:35:39.783Z,7.30
2022-12-01T06:40:46.891Z,7.30
2022-12-01T06:45:52.422Z,7.30
2022-12-01T06:50:59.431Z,7.30
2022-12-01T06:56:06.592Z,7.30
2022-12-01T07:01:12.318Z,7.30
2022-12-01T07:06:18.857Z,7.30
2022-12-01T07:11:24.397Z,7.30
2022-12-01T07:16:31.329Z,7.30
2022-12-01T07:21:35.324Z,7.30
2022-12-01T07:26:41.601Z,7.30
2022-12-01T07:31:53.810Z,7.30
2022-12-01T07:37:01.298Z,7.30
2022-12-01T07:42:09.565Z,7.30
2022-12-01T07:47:13.565Z,7.30
2022-12-01T07:52:30.232Z,7.30
2022-12-01T07:57:45.515Z,7.30
2022-12-01T08:02:52.995Z,7.30
2022-12-01T08:08:12.034Z,7.30
2022-12-01T08:13:26.356Z,7.30
2022-12-01T08:18:36.250Z,7.40
2022-12-01T08:23:41.783Z,7.40
2022-12-01T08:28:55.203Z,7.40
2022-12-01T08:34:08.511Z,7.40
2022-12-01T08:39:19.366Z,7.40
2022-12-01T08:44:29.704Z,7.40
2022-12-01T08:49:35.334Z,7.40
2022-12-01T08:54:39.848Z,7.40
2022-12-01T09:00:05.866Z,7.40
2022-12-01T09:05:21.277Z,7.40
2022-12-01T09:10:25.270Z,7.50
2022-12-01T09:15:36.487Z,7.50
2022-12-01T09:20:40.560Z,7.60
2022-12-01T09:25:44.461Z,7.60
2022-12-01T09:30:50.091Z,7.60
2022-12-01T09:36:00.970Z,7.60
2022-12-01T09:41:12.597Z,7.60
2022-12-01T09:46:25.992Z,7.60
2022-12-01T09:51:36.350Z,7.60
2022-12-01T09:56:45.739Z,7.60
2022-12-01T10:01:56.938Z,7.60
2022-12-01T10:07:04.713Z,7.70
2022-12-01T10:12:23.980Z,7.70
2022-12-01T10:17:35.044Z,7.70
2022-12-01T10:23:15.556Z,7.70
2022-12-01T10:28:40.727Z,7.80
2022-12-01T10:33:59.595Z,7.90
2022-12-01T10:39:21.186Z,7.90
2022-12-01T10:44:25.573Z,7.90
2022-12-01T10:49:42.520Z,8.00
2022-12-01T10:54:46.788Z,8.00
2022-12-01T10:59:54.040Z,8.00
2022-12-01T11:05:00.653Z,8.00
2022-12-01T11:10:15.831Z,8.00
2022-12-01T11:15:24.366Z,8.10
2022-12-01T11:20:44.253Z,8.20
2022-12-01T11:25:59.374Z,8.20
2022-12-01T11:31:06.621Z,8.20
2022-12-01T11:36:23.703Z,8.20
2022-12-01T11:41:32.289Z,8.20
2022-12-01T11:46:50.168Z,8.30
2022-12-01T11:52:19.150Z,8.30
2022-12-01T11:57:34.194Z,8.30
2022-12-01T12:03:08.264Z,8.30
2022-12-01T12:08:28.847Z,8.20
2022-12-01T12:13:46.109Z,8.30
2022-12-01T12:19:03.312Z,8.30
2022-12-01T12:24:37.890Z,8.20
2022-12-01T12:29:56.456Z,8.20
2022-12-01T12:35:10.397Z,8.30
2022-12-01T12:40:34.766Z,8.30
2022-12-01T12:45:50.624Z,8.40
2022-12-01T12:50:58.898Z,8.40
2022-12-01T12:56:08.387Z,8.50
2022-12-01T13:01:20.437Z,8.50
2022-12-01T13:06:31.194Z,8.50
2022-12-01T13:11:45.423Z,8.50
2022-12-01T13:16:55.169Z,8.60
2022-12-01T13:22:01.305Z,8.50
2022-12-01T13:27:16.967Z,8.60
2022-12-01T13:32:37.972Z,8.60
2022-12-01T13:37:42.875Z,8.50
2022-12-01T13:42:56.975Z,8.50
2022-12-01T13:48:04.718Z,8.50
2022-12-01T13:53:14.033Z,8.40
2022-12-01T13:58:42.185Z,8.40
2022-12-01T14:03:56.972Z,8.40
2022-12-01T14:09:03.418Z,8.40
2022-12-01T14:14:24.205Z,8.40
2022-12-01T14:19:36.942Z,8.30
2022-12-01T14:24:43.859Z,8.30
2022-12-01T14:29:49.589Z,8.30
2022-12-01T14:35:02.508Z,8.30
2022-12-01T14:40:22.509Z,8.20
2022-12-01T14:45:35.303Z,8.20
2022-12-01T14:50:46.894Z,8.20
2022-12-01T14:55:57.613Z,8.20
2022-12-01T15:01:09.200Z,8.20
2022-12-01T15:06:21.508Z,8.10
2022-12-01T15:11:26.911Z,8.10
2022-12-01T15:16:33.514Z,8.10
2022-12-01T15:21:44.138Z,8.10
2022-12-01T15:27:03.722Z,8.00
2022-12-01T15:32:14.671Z,8.00
2022-12-01T15:37:24.400Z,8.00
2022-12-01T15:42:30.598Z,8.00
2022-12-01T15:47:47.248Z,7.90
2022-12-01T15:52:51.941Z,7.90
2022-12-01T15:57:57.506Z,7.90
2022-12-01T16:03:05.259Z,7.90
2022-12-01T16:08:20.199Z,7.90
2022-12-01T16:13:45.558Z,7.90
2022-12-01T16:18:56.740Z,7.90
2022-12-01T16:24:04.550Z,7.90
2022-12-01T16:29:22.153Z,7.80
2022-12-01T16:34:45.325Z,7.80
2022-12-01T16:39:53.104Z,7.80
2022-12-01T16:44:57.150Z,7.80
2022-12-01T16:50:03.028Z,7.80
2022-12-01T16:55:29.757Z,7.80
2022-12-01T17:00:34.095Z,7.80
2022-12-01T17:05:40.253Z,7.80
2022-12-01T17:10:48.418Z,7.80
2022-12-01T17:16:01.073Z,7.70
2022-12-01T17:21:12.028Z,7.70
2022-12-01T17:26:18.423Z,7.70
2022-12-01T17:31:23.051Z,7.70
2022-12-01T17:36:28.676Z,7.70
2022-12-01T17:41:35.799Z,7.70
2022-12-01T17:46:42.894Z,7.70
2022-12-01T17:51:50.607Z,7.70
2022-12-01T17:56:57.976Z,7.70
2022-12-01T18:02:17.257Z,7.70
2022-12-01T18:07:22.861Z,7.70
2022-12-01T18:12:26.829Z,7.70
2022-12-01T18:17:31.052Z,7.70
2022-12-01T18:22:36.513Z,7.70
2022-12-01T18:27:40.687Z,7.60
2022-12-01T18:32:44.846Z,7.70
2022-12-01T18:37:51.532Z,7.60
2022-12-01T18:48:20.178Z,7.60
2022-12-01T18:53:26.827Z,7.60
2022-12-01T18:58:31.216Z,7.60
2022-12-01T19:03:34.988Z,7.60
2022-12-01T19:08:41.271Z,7.60
2022-12-01T19:13:45.672Z,7.60
2022-12-01T19:18:50.144Z,7.60
2022-12-01T19:23:58.289Z,7.60
2022-12-01T19:29:03.068Z,7.50
2022-12-01T19:34:07.667Z,7.50
2022-12-01T19:39:13.017Z,7.60
2022-12-01T19:44:17.121Z,7.50
2022-12-01T19:49:21.131Z,7.50
2022-12-01T19:54:28.577Z,7.50
2022-12-01T19:59:33.109Z,7.50
2022-12-01T20:04:38.813Z,7.50
2022-12-01T20:09:48.426Z,7.50
2022-12-01T20:14:54.104Z,7.50
2022-12-01T20:19:58.145Z,7.50
2022-12-01T20:25:04.450Z,7.40
2022-12-01T20:30:10.389Z,7.40
2022-12-01T20:35:15.693Z,7.40
2022-12-01T20:40:23.171Z,7.40
2022-12-01T20:45:27.349Z,7.50
2022-12-01T20:50:31.558Z,7.40
2022-12-01T20:55:37.995Z,7.40
2022-12-01T21:00:44.314Z,7.50
2022-12-01T21:05:50.524Z,7.40
2022-12-01T21:10:55.870Z,7.40
2022-12-01T21:16:04.931Z,7.40
2022-12-01T21:21:25.567Z,7.40
2022-12-01T21:26:35.578Z,7.40
2022-12-01T21:31:39.493Z,7.40
2022-12-01T21:36:45.897Z,7.40
2022-12-01T21:41:54.022Z,7.40
2022-12-01T21:47:17.348Z,7.40
2022-12-01T21:52:25.119Z,7.40
2022-12-01T21:57:43.135Z,7.40
2022-12-01T22:02:51.089Z,7.40
2022-12-01T22:08:00.806Z,7.40
2022-12-01T22:13:10.947Z,7.40
2022-12-01T22:18:23.156Z,7.40
2022-12-01T22:23:34.393Z,7.30
2022-12-01T22:28:39.623Z,7.30
2022-12-01T22:33:43.647Z,7.30
2022-12-01T22:38:47.607Z,7.30
2022-12-01T22:43:57.324Z,7.30
2022-12-01T22:49:03.789Z,7.30
2022-12-01T22:54:27.565Z,7.30
2022-12-01T22:59:37.444Z,7.30
2022-12-01T23:04:44.602Z,7.30
2022-12-01T23:09:48.243Z,7.30
2022-12-01T23:14:55.494Z,7.30
2022-12-01T23:20:17.432Z,7.30
2022-12-01T23:25:23.310Z,7.20
2022-12-01T23:30:29.296Z,7.20
2022-12-01T23:35:37.367Z,7.30
2022-12-01T23:40:41.446Z,7.20
2022-12-01T23:45:47.721Z,7.20
2022-12-01T23:50:54.391Z,7.20
2022-12-01T23:56:01.827Z,7.20
